Time;durP1;ratioP1;P1;durP2;ratioP2;P2;SDS_P1;SDS_P2;PMS_P1;PMS_P2;Temp;Humidity;BMP_temperature;BMP_pressure;BME280_temperature;BME280_humidity;BME280_pressure;Samples;Min_cycle;Max_cycle;Signal;HPM_P1;HPM_P2
2023/06/04 00:00:16;;;;;;;1.65;1.55;;;;;;;;;;4951741;28;95493;-85
2023/06/04 00:02:43;;;;;;;3.55;1.10;;;;;;;;;;4953636;28;92197;-85
2023/06/04 00:05:10;;;;;;;6.03;1.40;;;;;;;;;;4951886;28;92375;-86
2023/06/04 00:07:37;;;;;;;3.83;1.75;;;;;;;;;;4956345;28;92435;-86
2023/06/04 00:10:04;;;;;;;7.60;1.88;;;;;;;;;;4961366;28;95149;-85
2023/06/04 00:12:31;;;;;;;3.88;1.90;;;;;;;;;;4967714;28;94634;-86
2023/06/04 00:14:57;;;;;;;2.03;1.50;;;;;;;;;;4980593;28;94590;-86
2023/06/04 00:17:24;;;;;;;3.72;1.77;;;;;;;;;;4964117;28;91891;-86
2023/06/04 00:19:50;;;;;;;4.70;2.28;;;;;;;;;;4950766;28;92473;-86
2023/06/04 00:22:17;;;;;;;6.55;1.80;;;;;;;;;;4968749;28;92258;-86
2023/06/04 00:24:44;;;;;;;5.65;2.10;;;;;;;;;;4970404;28;94717;-86
2023/06/04 00:27:10;;;;;;;2.38;1.92;;;;;;;;;;4968549;28;91699;-86
2023/06/04 00:29:37;;;;;;;1.50;1.25;;;;;;;;;;4962690;28;92456;-86
2023/06/04 00:32:04;;;;;;;8.10;3.15;;;;;;;;;;4968368;28;92275;-86
2023/06/04 00:34:31;;;;;;;1.95;1.73;;;;;;;;;;4966191;28;94499;-86
2023/06/04 00:36:58;;;;;;;3.70;1.75;;;;;;;;;;4972033;28;96839;-85
2023/06/04 00:39:24;;;;;;;3.10;1.48;;;;;;;;;;4951814;28;93185;-85
2023/06/04 00:41:51;;;;;;;11.75;1.52;;;;;;;;;;4969281;28;92250;-85
2023/06/04 00:44:18;;;;;;;2.75;1.55;;;;;;;;;;4968371;28;94184;-85
2023/06/04 00:46:45;;;;;;;1.88;1.70;;;;;;;;;;4946719;28;92990;-86
2023/06/04 00:49:12;;;;;;;7.43;1.55;;;;;;;;;;4963100;28;94499;-85
2023/06/04 00:51:39;;;;;;;4.10;1.55;;;;;;;;;;4951516;28;94114;-86
2023/06/04 00:54:08;;;;;;;1.95;1.63;;;;;;;;;;4958699;28;92259;-86
2023/06/04 00:56:38;;;;;;;2.58;1.63;;;;;;;;;;4966689;28;92509;-86
2023/06/04 00:59:06;;;;;;;1.60;1.33;;;;;;;;;;4971340;28;96910;-86
2023/06/04 01:01:59;;;;;;;2.05;1.38;;;;;;;;;;4983644;28;93859;-86
2023/06/04 01:04:29;;;;;;;4.43;1.90;;;;;;;;;;4972938;28;92353;-86
2023/06/04 01:06:57;;;;;;;5.93;1.75;;;;;;;;;;4971070;28;94503;-86
2023/06/04 01:09:26;;;;;;;1.58;1.30;;;;;;;;;;4962012;28;92398;-86
2023/06/04 01:11:52;;;;;;;4.72;1.85;;;;;;;;;;4970828;28;92223;-86
2023/06/04 01:14:19;;;;;;;1.80;1.20;;;;;;;;;;4979906;28;92295;-86
2023/06/04 01:16:48;;;;;;;9.18;1.88;;;;;;;;;;4945286;28;93093;-86
2023/06/04 01:19:29;;;;;;;1.67;1.58;;;;;;;;;;4967490;28;94832;-86
2023/06/04 01:22:00;;;;;;;2.65;1.63;;;;;;;;;;4962385;28;94584;-86
2023/06/04 01:24:27;;;;;;;3.80;1.65;;;;;;;;;;4966811;28;94641;-86
2023/06/04 01:26:55;;;;;;;3.80;1.80;;;;;;;;;;4974526;28;92086;-86
2023/06/04 01:29:23;;;;;;;5.75;1.50;;;;;;;;;;4967982;28;92164;-86
2023/06/04 01:31:51;;;;;;;1.58;1.42;;;;;;;;;;4966476;28;92281;-86
2023/06/04 01:34:20;;;;;;;2.20;1.60;;;;;;;;;;4972425;28;92536;-86
2023/06/04 01:36:47;;;;;;;6.20;1.70;;;;;;;;;;4982964;28;92402;-86
2023/06/04 01:39:14;;;;;;;4.00;1.48;;;;;;;;;;4990229;28;94442;-86
2023/06/04 01:41:40;;;;;;;2.50;1.75;;;;;;;;;;4969319;28;91622;-86
2023/06/04 01:44:07;;;;;;;5.82;1.90;;;;;;;;;;4972399;28;91603;-86
2023/06/04 01:46:34;;;;;;;2.83;1.80;;;;;;;;;;4957963;28;94639;-86
2023/06/04 01:49:00;;;;;;;7.45;1.75;;;;;;;;;;4973116;28;93969;-86
2023/06/04 01:51:27;;;;;;;6.15;1.80;;;;;;;;;;4977692;28;94266;-86
2023/06/04 01:53:54;;;;;;;4.13;1.48;;;;;;;;;;4977932;28;92389;-84
2023/06/04 01:56:21;;;;;;;2.58;1.90;;;;;;;;;;4976151;28;91665;-85
2023/06/04 01:58:47;;;;;;;4.78;2.03;;;;;;;;;;4966381;28;95049;-85
2023/06/04 02:01:16;;;;;;;4.30;1.67;;;;;;;;;;4965083;28;92294;-86
2023/06/04 02:03:44;;;;;;;5.18;1.88;;;;;;;;;;4965812;28;93813;-86
2023/06/04 02:06:12;;;;;;;2.72;1.83;;;;;;;;;;4967736;28;93568;-86
2023/06/04 02:08:40;;;;;;;3.10;1.80;;;;;;;;;;4959466;28;92299;-86
2023/06/04 02:11:07;;;;;;;1.92;1.52;;;;;;;;;;4966657;28;94886;-86
2023/06/04 02:13:34;;;;;;;2.10;2.00;;;;;;;;;;4951830;28;94862;-86
2023/06/04 02:16:01;;;;;;;5.75;2.05;;;;;;;;;;4974705;28;95233;-86
2023/06/04 02:18:28;;;;;;;6.90;2.30;;;;;;;;;;4965991;28;94605;-85
2023/06/04 02:20:56;;;;;;;4.47;2.00;;;;;;;;;;4957117;28;94832;-85
2023/06/04 02:23:23;;;;;;;1.92;1.83;;;;;;;;;;4968971;28;92508;-85
2023/06/04 02:25:52;;;;;;;5.65;2.10;;;;;;;;;;4953791;28;95198;-86
2023/06/04 02:28:19;;;;;;;4.85;2.08;;;;;;;;;;4970486;28;91657;-84
2023/06/04 02:30:46;;;;;;;2.53;2.28;;;;;;;;;;4972283;28;91267;-84
2023/06/04 02:33:14;;;;;;;2.17;1.98;;;;;;;;;;4971095;28;95110;-85
2023/06/04 02:35:40;;;;;;;2.17;1.85;;;;;;;;;;4955538;28;92299;-84
2023/06/04 02:38:07;;;;;;;4.95;1.85;;;;;;;;;;4960736;28;94763;-84
2023/06/04 02:40:34;;;;;;;2.08;1.90;;;;;;;;;;4937960;28;93068;-84
2023/06/04 02:43:01;;;;;;;2.45;1.83;;;;;;;;;;4948947;28;92525;-84
2023/06/04 02:45:28;;;;;;;9.48;1.90;;;;;;;;;;4948622;28;92320;-86
2023/06/04 02:47:55;;;;;;;11.20;1.85;;;;;;;;;;4944730;28;94049;-84
2023/06/04 02:50:22;;;;;;;2.85;1.92;;;;;;;;;;4954568;28;94585;-84
2023/06/04 02:52:49;;;;;;;1.70;1.60;;;;;;;;;;4949857;28;94729;-83
2023/06/04 02:55:16;;;;;;;2.10;1.90;;;;;;;;;;4941737;28;96579;-84
2023/06/04 02:57:42;;;;;;;10.05;2.35;;;;;;;;;;4943534;28;92316;-84
2023/06/04 03:00:13;;;;;;;2.05;1.85;;;;;;;;;;4968713;28;94297;-87
2023/06/04 03:02:41;;;;;;;1.98;1.88;;;;;;;;;;4969990;28;94495;-84
2023/06/04 03:05:10;;;;;;;4.03;2.00;;;;;;;;;;4971788;28;92532;-84
2023/06/04 03:07:38;;;;;;;2.72;2.08;;;;;;;;;;4958035;28;92661;-85
2023/06/04 03:10:06;;;;;;;5.25;1.88;;;;;;;;;;4955698;28;93689;-86
2023/06/04 03:12:33;;;;;;;3.40;2.00;;;;;;;;;;4958216;28;92148;-85
2023/06/04 03:15:00;;;;;;;2.05;1.92;;;;;;;;;;4948161;28;94480;-85
2023/06/04 03:17:26;;;;;;;7.70;2.00;;;;;;;;;;4966768;28;92360;-85
2023/06/04 03:19:53;;;;;;;3.58;2.15;;;;;;;;;;4956912;28;94818;-85
2023/06/04 03:22:20;;;;;;;15.00;2.78;;;;;;;;;;4956816;28;93816;-85
2023/06/04 03:24:47;;;;;;;4.25;2.38;;;;;;;;;;4949722;28;95700;-85
2023/06/04 03:27:13;;;;;;;2.40;1.95;;;;;;;;;;4956461;28;94550;-84
2023/06/04 03:29:41;;;;;;;2.60;2.35;;;;;;;;;;4956641;28;96472;-84
2023/06/04 03:32:09;;;;;;;3.75;3.13;;;;;;;;;;4963363;28;92105;-84
2023/06/04 03:34:37;;;;;;;3.90;2.22;;;;;;;;;;4956462;28;92280;-85
2023/06/04 03:37:03;;;;;;;2.30;2.10;;;;;;;;;;4948911;28;92459;-85
2023/06/04 03:39:31;;;;;;;2.17;1.98;;;;;;;;;;4955851;28;93949;-85
2023/06/04 03:42:00;;;;;;;4.75;2.30;;;;;;;;;;4956338;28;94085;-85
2023/06/04 03:44:28;;;;;;;5.35;2.05;;;;;;;;;;4956193;28;94898;-85
2023/06/04 03:46:55;;;;;;;3.40;1.98;;;;;;;;;;4956779;28;96115;-85
2023/06/04 03:49:22;;;;;;;5.68;2.45;;;;;;;;;;4946184;28;94437;-84
2023/06/04 03:51:49;;;;;;;5.50;2.13;;;;;;;;;;4961111;28;96842;-85
2023/06/04 03:54:17;;;;;;;10.40;2.47;;;;;;;;;;4965773;28;94798;-84
2023/06/04 03:56:46;;;;;;;3.45;2.20;;;;;;;;;;4961234;28;92995;-85
2023/06/04 03:59:13;;;;;;;9.60;3.20;;;;;;;;;;4957356;28;93830;-85
2023/06/04 04:01:41;;;;;;;4.05;2.28;;;;;;;;;;4957709;28;92139;-84
2023/06/04 04:04:08;;;;;;;8.20;2.40;;;;;;;;;;4954792;28;94528;-85
2023/06/04 04:06:36;;;;;;;3.15;2.40;;;;;;;;;;4943068;28;94064;-85
2023/06/04 04:09:05;;;;;;;3.67;2.60;;;;;;;;;;4950980;28;95067;-85
2023/06/04 04:11:33;;;;;;;5.50;2.47;;;;;;;;;;4949834;28;92446;-85
2023/06/04 04:14:00;;;;;;;6.03;2.22;;;;;;;;;;4946124;28;94165;-86
2023/06/04 04:16:27;;;;;;;4.15;2.83;;;;;;;;;;4960357;28;94758;-85
2023/06/04 04:18:55;;;;;;;3.55;2.33;;;;;;;;;;4959294;28;94090;-86
2023/06/04 04:21:23;;;;;;;4.50;2.25;;;;;;;;;;4961121;28;92261;-86
2023/06/04 04:23:51;;;;;;;8.18;2.85;;;;;;;;;;4960495;28;94334;-86
2023/06/04 04:26:18;;;;;;;6.63;2.72;;;;;;;;;;4962901;28;92930;-86
2023/06/04 04:28:48;;;;;;;9.80;2.05;;;;;;;;;;4958099;28;93448;-86
2023/06/04 04:31:15;;;;;;;3.22;2.60;;;;;;;;;;4950035;28;92400;-86
2023/06/04 04:33:43;;;;;;;4.60;2.50;;;;;;;;;;4960530;28;95908;-86
2023/06/04 04:36:14;;;;;;;4.45;2.45;;;;;;;;;;4961519;28;94524;-86
2023/06/04 04:38:46;;;;;;;5.10;2.22;;;;;;;;;;4970436;28;94172;-86
2023/06/04 04:41:12;;;;;;;6.32;2.47;;;;;;;;;;4956316;28;94560;-86
2023/06/04 04:43:40;;;;;;;4.10;3.03;;;;;;;;;;4945045;28;94262;-86
2023/06/04 04:46:18;;;;;;;9.02;2.65;;;;;;;;;;4937579;28;94087;-86
2023/06/04 04:48:45;;;;;;;9.23;2.90;;;;;;;;;;4953674;28;92860;-86
2023/06/04 04:51:12;;;;;;;4.53;2.90;;;;;;;;;;4955148;28;94888;-86
2023/06/04 04:53:39;;;;;;;5.03;2.65;;;;;;;;;;4953221;28;94706;-86
2023/06/04 04:56:06;;;;;;;3.63;2.60;;;;;;;;;;4959507;28;94662;-85
2023/06/04 04:58:37;;;;;;;6.57;2.97;;;;;;;;;;4944174;28;94143;-85
2023/06/04 05:01:03;;;;;;;9.90;2.90;;;;;;;;;;4946419;28;94018;-86
2023/06/04 05:03:31;;;;;;;5.10;2.67;;;;;;;;;;4960293;28;94957;-86
2023/06/04 05:05:58;;;;;;;14.13;2.92;;;;;;;;;;4953242;28;94876;-85
2023/06/04 05:08:25;;;;;;;4.93;2.80;;;;;;;;;;4952616;28;97170;-86
2023/06/04 05:10:52;;;;;;;5.18;2.70;;;;;;;;;;4959800;28;94774;-86
2023/06/04 05:13:19;;;;;;;7.25;3.10;;;;;;;;;;4960536;28;94379;-85
2023/06/04 05:15:52;;;;;;;3.92;2.80;;;;;;;;;;4940311;28;94171;-86
2023/06/04 05:18:28;;;;;;;7.38;3.00;;;;;;;;;;4947809;28;93843;-85
2023/06/04 05:20:59;;;;;;;7.82;3.67;;;;;;;;;;4950397;28;94813;-85
2023/06/04 05:23:28;;;;;;;4.47;2.65;;;;;;;;;;4954624;28;91819;-85
2023/06/04 05:25:55;;;;;;;8.55;2.85;;;;;;;;;;4957816;28;92425;-85
2023/06/04 05:28:24;;;;;;;5.25;2.70;;;;;;;;;;4954843;28;92375;-86
2023/06/04 05:30:51;;;;;;;11.57;2.65;;;;;;;;;;4957592;28;96928;-86
2023/06/04 05:33:19;;;;;;;11.45;3.10;;;;;;;;;;4950781;28;92891;-86
2023/06/04 05:35:54;;;;;;;10.32;2.92;;;;;;;;;;4950849;28;93997;-86
2023/06/04 05:38:25;;;;;;;9.15;3.05;;;;;;;;;;4951033;28;93343;-85
2023/06/04 05:40:58;;;;;;;9.43;2.42;;;;;;;;;;4940119;28;92267;-85
2023/06/04 05:43:29;;;;;;;8.25;2.55;;;;;;;;;;4930539;28;94232;-85
2023/06/04 05:45:55;;;;;;;4.55;2.63;;;;;;;;;;4962438;28;92181;-84
2023/06/04 05:48:22;;;;;;;10.63;3.33;;;;;;;;;;4960546;28;91900;-85
2023/06/04 05:50:49;;;;;;;5.45;2.75;;;;;;;;;;4938092;28;94051;-84
2023/06/04 05:53:16;;;;;;;5.72;2.38;;;;;;;;;;4950847;28;94771;-85
2023/06/04 05:55:44;;;;;;;9.73;2.92;;;;;;;;;;4942018;28;95284;-85
2023/06/04 05:58:10;;;;;;;4.55;2.70;;;;;;;;;;4959490;28;93451;-84
2023/06/04 06:00:37;;;;;;;7.07;2.67;;;;;;;;;;4957422;28;94604;-85
2023/06/04 06:03:06;;;;;;;5.75;3.00;;;;;;;;;;4955395;28;92227;-85
2023/06/04 06:05:40;;;;;;;4.45;2.30;;;;;;;;;;4940936;28;95857;-85
2023/06/04 06:08:07;;;;;;;6.72;2.50;;;;;;;;;;4952323;28;92254;-84
2023/06/04 06:10:33;;;;;;;5.78;2.78;;;;;;;;;;4935621;28;94666;-83
2023/06/04 06:13:00;;;;;;;4.85;2.50;;;;;;;;;;4947344;28;95951;-85
2023/06/04 06:15:28;;;;;;;12.32;2.72;;;;;;;;;;4946935;28;94005;-87
2023/06/04 06:17:55;;;;;;;3.85;2.47;;;;;;;;;;4960155;28;94450;-85
2023/06/04 06:20:23;;;;;;;5.60;2.53;;;;;;;;;;4958205;28;94731;-85
2023/06/04 06:22:50;;;;;;;7.47;3.25;;;;;;;;;;4942014;28;94472;-86
2023/06/04 06:25:19;;;;;;;9.63;2.75;;;;;;;;;;4958026;28;94092;-84
2023/06/04 06:27:55;;;;;;;4.82;2.38;;;;;;;;;;4985280;28;92464;-84
2023/06/04 06:30:22;;;;;;;5.80;1.95;;;;;;;;;;4954569;28;94426;-87
2023/06/04 06:32:49;;;;;;;7.95;2.33;;;;;;;;;;4958822;28;92284;-84
2023/06/04 06:35:18;;;;;;;7.43;2.55;;;;;;;;;;4961039;28;92993;-84
2023/06/04 06:37:44;;;;;;;11.07;3.17;;;;;;;;;;4967003;28;92811;-87
2023/06/04 06:40:11;;;;;;;3.75;1.92;;;;;;;;;;4959312;28;92365;-84
2023/06/04 06:42:38;;;;;;;4.20;2.25;;;;;;;;;;4951363;28;95301;-85
2023/06/04 06:45:05;;;;;;;6.53;2.45;;;;;;;;;;4961134;28;95409;-84
2023/06/04 06:47:31;;;;;;;8.65;2.00;;;;;;;;;;4960528;28;94407;-85
2023/06/04 06:49:58;;;;;;;4.32;2.25;;;;;;;;;;4965206;28;92330;-86
2023/06/04 06:52:25;;;;;;;3.60;2.00;;;;;;;;;;4943164;28;94793;-85
2023/06/04 06:54:52;;;;;;;10.23;2.53;;;;;;;;;;4956929;28;94359;-84
2023/06/04 06:57:19;;;;;;;7.47;2.30;;;;;;;;;;4959493;28;93114;-86
2023/06/04 06:59:46;;;;;;;3.83;2.00;;;;;;;;;;4944160;28;94067;-84
2023/06/04 07:02:12;;;;;;;5.65;2.08;;;;;;;;;;4942218;28;91923;-85
2023/06/04 07:04:39;;;;;;;4.25;2.00;;;;;;;;;;4940271;28;94794;-85
2023/06/04 07:07:05;;;;;;;4.88;2.20;;;;;;;;;;4961054;28;94716;-83
2023/06/04 07:09:32;;;;;;;6.00;1.92;;;;;;;;;;4967952;28;94775;-83
2023/06/04 07:11:58;;;;;;;5.55;2.67;;;;;;;;;;4977333;28;92872;-83
2023/06/04 07:14:25;;;;;;;7.90;2.50;;;;;;;;;;4980895;28;94243;-84
2023/06/04 07:16:51;;;;;;;5.97;2.30;;;;;;;;;;4974532;28;95822;-85
2023/06/04 07:19:18;;;;;;;4.82;1.98;;;;;;;;;;4973791;28;94196;-83
2023/06/04 07:21:45;;;;;;;4.88;2.40;;;;;;;;;;4974910;28;92262;-83
2023/06/04 07:24:11;;;;;;;10.38;3.05;;;;;;;;;;4973108;28;95345;-83
2023/06/04 07:26:38;;;;;;;6.93;1.90;;;;;;;;;;4974376;28;91980;-83
2023/06/04 07:29:05;;;;;;;11.02;2.60;;;;;;;;;;4971766;28;92141;-83
2023/06/04 07:31:31;;;;;;;9.82;2.55;;;;;;;;;;4966028;28;92401;-84
2023/06/04 07:33:58;;;;;;;4.32;1.70;;;;;;;;;;4968204;28;94028;-83
2023/06/04 07:36:25;;;;;;;4.15;1.60;;;;;;;;;;4960940;28;94232;-84
2023/06/04 07:38:51;;;;;;;6.03;1.60;;;;;;;;;;4970777;28;92210;-84
2023/06/04 07:41:18;;;;;;;3.00;1.92;;;;;;;;;;4962020;28;92134;-83
2023/06/04 07:43:45;;;;;;;4.20;1.58;;;;;;;;;;4957576;28;91996;-84
2023/06/04 07:46:11;;;;;;;5.97;2.17;;;;;;;;;;4961723;28;92165;-83
2023/06/04 07:48:38;;;;;;;6.30;1.90;;;;;;;;;;4961790;28;92916;-84
2023/06/04 07:51:04;;;;;;;5.35;2.22;;;;;;;;;;4967276;28;93696;-84
2023/06/04 07:53:31;;;;;;;5.82;1.85;;;;;;;;;;4965239;28;95248;-84
2023/06/04 07:55:58;;;;;;;6.50;2.17;;;;;;;;;;4967190;28;92621;-83
2023/06/04 07:58:25;;;;;;;6.78;1.85;;;;;;;;;;4966132;28;94980;-84
2023/06/04 08:00:53;;;;;;;7.38;2.55;;;;;;;;;;4963240;28;95290;-83
2023/06/04 08:03:20;;;;;;;6.32;2.20;;;;;;;;;;4972519;28;94336;-84
2023/06/04 08:05:47;;;;;;;2.90;1.55;;;;;;;;;;4967918;28;91946;-86
2023/06/04 08:08:13;;;;;;;4.03;1.85;;;;;;;;;;4966387;28;92869;-84
2023/06/04 08:10:40;;;;;;;7.35;1.88;;;;;;;;;;4949940;28;92370;-82
2023/06/04 08:13:09;;;;;;;10.25;1.92;;;;;;;;;;4957565;28;93029;-82
2023/06/04 08:15:36;;;;;;;2.80;1.30;;;;;;;;;;4963569;28;92229;-83
2023/06/04 08:18:05;;;;;;;8.27;1.75;;;;;;;;;;4960926;28;94451;-83
2023/06/04 08:20:32;;;;;;;6.03;1.90;;;;;;;;;;4961094;28;92509;-83
2023/06/04 08:22:59;;;;;;;7.72;1.42;;;;;;;;;;4952776;28;97774;-83
2023/06/04 08:25:26;;;;;;;5.35;1.73;;;;;;;;;;4972826;28;92339;-84
2023/06/04 08:27:53;;;;;;;5.75;1.55;;;;;;;;;;4958111;28;92402;-84
2023/06/04 08:30:19;;;;;;;9.07;1.95;;;;;;;;;;4953173;28;92174;-84
2023/06/04 08:32:46;;;;;;;16.17;1.88;;;;;;;;;;4963906;28;92468;-84
2023/06/04 08:35:13;;;;;;;3.90;1.90;;;;;;;;;;4942986;28;93088;-84
2023/06/04 08:37:39;;;;;;;4.70;1.88;;;;;;;;;;4958683;28;92205;-83
2023/06/04 08:40:06;;;;;;;9.25;1.80;;;;;;;;;;4960023;28;94688;-84
2023/06/04 08:42:38;;;;;;;7.10;2.13;;;;;;;;;;4955884;28;93521;-84
2023/06/04 08:45:06;;;;;;;3.47;1.40;;;;;;;;;;4956346;28;92463;-84
2023/06/04 08:47:34;;;;;;;2.40;1.42;;;;;;;;;;4961824;28;94877;-84
2023/06/04 08:50:01;;;;;;;5.30;1.38;;;;;;;;;;4956279;28;93990;-83
2023/06/04 08:52:28;;;;;;;5.00;1.67;;;;;;;;;;4965745;28;94048;-83
2023/06/04 08:54:56;;;;;;;6.20;1.65;;;;;;;;;;4965411;28;93071;-84
2023/06/04 08:57:23;;;;;;;6.65;1.52;;;;;;;;;;4961667;28;94738;-84
2023/06/04 08:59:50;;;;;;;7.57;2.05;;;;;;;;;;4966430;28;92709;-84
2023/06/04 09:02:17;;;;;;;2.78;1.58;;;;;;;;;;4963170;28;92280;-84
2023/06/04 09:04:44;;;;;;;5.63;1.80;;;;;;;;;;4964641;28;95927;-84
2023/06/04 09:07:12;;;;;;;4.07;1.40;;;;;;;;;;4962226;28;94338;-84
2023/06/04 09:09:39;;;;;;;2.67;1.30;;;;;;;;;;4949953;28;92382;-83
2023/06/04 09:12:10;;;;;;;3.67;1.38;;;;;;;;;;4964386;28;94391;-83
2023/06/04 09:14:37;;;;;;;8.68;1.90;;;;;;;;;;4965812;28;93971;-82
2023/06/04 09:17:05;;;;;;;4.72;1.67;;;;;;;;;;4965847;28;93244;-84
2023/06/04 09:19:31;;;;;;;2.38;1.17;;;;;;;;;;4949608;28;95048;-84
2023/06/04 09:22:00;;;;;;;7.60;1.63;;;;;;;;;;4961694;28;93470;-83
2023/06/04 09:24:43;;;;;;;3.00;1.65;;;;;;;;;;4953374;28;92477;-84
2023/06/04 09:27:19;;;;;;;5.05;1.60;;;;;;;;;;4960898;28;92295;-84
2023/06/04 09:29:50;;;;;;;10.25;1.55;;;;;;;;;;4954729;28;92139;-83
2023/06/04 09:32:23;;;;;;;8.27;1.95;;;;;;;;;;4966013;28;93440;-83
2023/06/04 09:34:52;;;;;;;2.90;1.55;;;;;;;;;;4949079;28;94194;-84
2023/06/04 09:37:19;;;;;;;2.67;1.23;;;;;;;;;;4970048;28;97198;-83
2023/06/04 09:39:55;;;;;;;1.40;1.10;;;;;;;;;;4967383;28;95847;-84
2023/06/04 09:42:22;;;;;;;6.90;1.80;;;;;;;;;;4961386;28;92332;-83
2023/06/04 09:44:49;;;;;;;5.45;1.63;;;;;;;;;;4968769;28;92146;-84
2023/06/04 09:47:16;;;;;;;3.78;1.50;;;;;;;;;;4963644;28;92861;-84
2023/06/04 09:49:47;;;;;;;4.72;1.17;;;;;;;;;;4967495;28;92432;-85
2023/06/04 09:52:13;;;;;;;6.20;1.60;;;;;;;;;;4964162;28;92369;-84
2023/06/04 09:54:41;;;;;;;7.03;1.58;;;;;;;;;;4964953;28;94660;-83
2023/06/04 09:57:16;;;;;;;3.33;1.30;;;;;;;;;;4947071;28;95554;-83
2023/06/04 09:59:47;;;;;;;5.03;1.15;;;;;;;;;;4965729;28;93498;-84
2023/06/04 10:02:18;;;;;;;4.10;1.23;;;;;;;;;;4960288;28;94508;-85
2023/06/04 10:04:48;;;;;;;5.35;1.30;;;;;;;;;;4956579;28;92316;-85
2023/06/04 10:07:15;;;;;;;8.77;1.40;;;;;;;;;;4960126;28;94121;-84
2023/06/04 10:09:48;;;;;;;5.57;1.25;;;;;;;;;;4961954;28;94237;-83
2023/06/04 10:12:16;;;;;;;5.22;1.35;;;;;;;;;;4962300;28;92574;-85
2023/06/04 10:14:50;;;;;;;6.05;1.73;;;;;;;;;;4944579;28;94071;-85
2023/06/04 10:17:21;;;;;;;7.25;1.80;;;;;;;;;;4961451;28;93186;-84
2023/06/04 10:19:49;;;;;;;1.90;1.00;;;;;;;;;;4957988;28;94558;-84
2023/06/04 10:22:15;;;;;;;4.38;1.02;;;;;;;;;;4951670;28;93946;-84
2023/06/04 10:24:43;;;;;;;3.53;1.40;;;;;;;;;;4951699;28;93064;-82
2023/06/04 10:27:11;;;;;;;5.50;1.30;;;;;;;;;;4971181;28;94433;-82
2023/06/04 10:29:38;;;;;;;5.47;1.55;;;;;;;;;;4961952;28;92446;-83
2023/06/04 10:32:05;;;;;;;5.07;1.33;;;;;;;;;;4950150;28;94168;-83
2023/06/04 10:34:32;;;;;;;2.35;1.23;;;;;;;;;;4971583;28;92942;-83
2023/06/04 10:36:59;;;;;;;3.95;1.30;;;;;;;;;;4968161;28;93507;-83
2023/06/04 10:39:32;;;;;;;12.48;1.35;;;;;;;;;;4967508;28;95861;-83
2023/06/04 10:42:02;;;;;;;4.53;1.60;;;;;;;;;;4947566;28;93953;-83
2023/06/04 10:44:30;;;;;;;7.20;1.77;;;;;;;;;;4963004;28;91682;-81
2023/06/04 10:46:56;;;;;;;1.27;0.85;;;;;;;;;;4959990;28;95022;-83
2023/06/04 10:49:31;;;;;;;4.22;1.20;;;;;;;;;;4944004;28;94808;-83
2023/06/04 10:52:03;;;;;;;3.33;1.15;;;;;;;;;;4935830;28;94559;-83
2023/06/04 10:54:29;;;;;;;2.08;1.13;;;;;;;;;;4961038;28;94111;-82
2023/06/04 10:56:56;;;;;;;9.30;1.30;;;;;;;;;;4953767;28;94656;-81
2023/06/04 10:59:24;;;;;;;2.65;1.30;;;;;;;;;;4957105;28;92413;-81
2023/06/04 11:01:50;;;;;;;4.60;1.02;;;;;;;;;;4961080;28;92020;-81
2023/06/04 11:04:26;;;;;;;5.97;1.13;;;;;;;;;;4960211;28;95040;-81
2023/06/04 11:07:04;;;;;;;12.95;1.70;;;;;;;;;;4965579;28;94390;-82
2023/06/04 11:09:32;;;;;;;6.20;1.40;;;;;;;;;;4961201;28;92169;-80
2023/06/04 11:12:00;;;;;;;18.77;3.55;;;;;;;;;;4964273;28;92381;-82
2023/06/04 11:14:27;;;;;;;5.10;1.38;;;;;;;;;;4955833;28;95600;-82
2023/06/04 11:16:53;;;;;;;3.47;1.20;;;;;;;;;;4953827;28;97868;-83
2023/06/04 11:19:20;;;;;;;8.73;1.20;;;;;;;;;;4960828;28;92950;-83
2023/06/04 11:21:47;;;;;;;4.75;1.20;;;;;;;;;;4950022;28;92433;-83
2023/06/04 11:24:14;;;;;;;11.52;2.20;;;;;;;;;;4947196;28;92597;-83
2023/06/04 11:26:40;;;;;;;10.02;2.25;;;;;;;;;;4946588;28;92362;-82
2023/06/04 11:29:19;;;;;;;7.93;1.83;;;;;;;;;;4955762;28;92424;-83
2023/06/04 11:31:46;;;;;;;12.18;1.25;;;;;;;;;;4955128;28;93482;-83
2023/06/04 11:34:23;;;;;;;6.15;1.48;;;;;;;;;;4956448;28;92156;-83
2023/06/04 11:36:52;;;;;;;3.55;1.15;;;;;;;;;;4951552;28;92514;-83
2023/06/04 11:39:22;;;;;;;2.80;1.02;;;;;;;;;;4953390;28;95175;-83
2023/06/04 11:41:50;;;;;;;3.75;1.23;;;;;;;;;;4942847;28;94495;-82
2023/06/04 11:44:20;;;;;;;4.05;1.60;;;;;;;;;;4953552;28;93306;-83
2023/06/04 11:46:48;;;;;;;2.67;1.00;;;;;;;;;;4950488;28;94461;-83
2023/06/04 11:49:15;;;;;;;6.22;1.45;;;;;;;;;;4949603;28;94965;-83
2023/06/04 11:51:51;;;;;;;3.67;1.10;;;;;;;;;;4949607;28;92179;-83
2023/06/04 11:54:19;;;;;;;3.88;1.42;;;;;;;;;;4947281;28;94494;-83
2023/06/04 11:56:48;;;;;;;7.75;1.63;;;;;;;;;;4942324;28;94418;-83
2023/06/04 11:59:15;;;;;;;6.07;1.10;;;;;;;;;;4941248;28;94100;-83
2023/06/04 12:01:42;;;;;;;5.13;1.23;;;;;;;;;;4952784;28;92517;-82
2023/06/04 12:04:16;;;;;;;5.07;0.90;;;;;;;;;;4938986;28;93647;-83
2023/06/04 12:06:52;;;;;;;3.92;1.38;;;;;;;;;;4941591;28;96004;-82
2023/06/04 12:09:19;;;;;;;5.25;1.20;;;;;;;;;;4941217;28;96137;-83
2023/06/04 12:11:46;;;;;;;3.58;0.98;;;;;;;;;;4929484;28;95032;-81
2023/06/04 12:14:15;;;;;;;7.45;1.30;;;;;;;;;;4945712;28;94820;-82
2023/06/04 12:16:42;;;;;;;4.63;0.90;;;;;;;;;;4946206;28;92486;-82
2023/06/04 12:19:10;;;;;;;4.18;1.60;;;;;;;;;;4945596;28;92679;-82
2023/06/04 12:21:37;;;;;;;8.45;1.52;;;;;;;;;;4950940;28;95661;-81
2023/06/04 12:24:07;;;;;;;4.88;1.00;;;;;;;;;;4944115;28;95371;-83
2023/06/04 12:26:37;;;;;;;8.37;1.30;;;;;;;;;;4953332;28;92422;-82
2023/06/04 12:29:11;;;;;;;4.03;1.30;;;;;;;;;;4953543;28;93432;-83
2023/06/04 12:31:38;;;;;;;1.65;0.98;;;;;;;;;;4938155;28;94828;-82
2023/06/04 12:34:05;;;;;;;0.90;0.77;;;;;;;;;;4969967;28;93846;-83
2023/06/04 12:36:33;;;;;;;2.58;0.98;;;;;;;;;;4951669;28;93197;-83
2023/06/04 12:39:01;;;;;;;3.83;1.05;;;;;;;;;;4955739;28;95415;-82
2023/06/04 12:41:28;;;;;;;1.70;0.90;;;;;;;;;;4959977;28;92436;-83
2023/06/04 12:43:55;;;;;;;2.78;1.25;;;;;;;;;;4950664;28;92437;-83
2023/06/04 12:46:22;;;;;;;1.83;0.90;;;;;;;;;;4950469;28;95853;-84
2023/06/04 12:48:52;;;;;;;5.15;1.60;;;;;;;;;;4966496;28;92204;-82
2023/06/04 12:51:20;;;;;;;1.73;1.10;;;;;;;;;;4958657;28;92527;-83
2023/06/04 12:53:47;;;;;;;2.33;1.08;;;;;;;;;;4969155;28;92158;-82
2023/06/04 12:56:14;;;;;;;1.70;0.90;;;;;;;;;;4967396;28;94421;-83
2023/06/04 12:58:41;;;;;;;1.75;1.20;;;;;;;;;;4968210;28;94694;-82
2023/06/04 13:01:07;;;;;;;4.75;1.08;;;;;;;;;;4953356;28;94620;-83
2023/06/04 13:03:36;;;;;;;11.18;1.75;;;;;;;;;;4967819;28;92225;-83
2023/06/04 13:06:06;;;;;;;2.33;1.40;;;;;;;;;;4934851;28;95488;-83
2023/06/04 13:08:33;;;;;;;4.88;1.20;;;;;;;;;;4964722;28;93480;-83
2023/06/04 13:11:00;;;;;;;0.98;0.80;;;;;;;;;;4964046;28;92394;-85
2023/06/04 13:13:27;;;;;;;4.00;1.10;;;;;;;;;;4945625;28;93844;-85
2023/06/04 13:15:53;;;;;;;1.42;0.93;;;;;;;;;;4954432;28;92294;-85
2023/06/04 13:18:20;;;;;;;5.30;1.50;;;;;;;;;;4948586;28;94201;-86
2023/06/04 13:20:48;;;;;;;12.18;1.55;;;;;;;;;;4947426;28;94775;-87
2023/06/04 13:23:15;;;;;;;2.05;1.30;;;;;;;;;;4947877;28;92119;-87
2023/06/04 13:25:41;;;;;;;4.03;0.98;;;;;;;;;;4967579;28;92381;-85
2023/06/04 13:28:08;;;;;;;6.55;1.20;;;;;;;;;;4953536;28;95923;-86
2023/06/04 13:30:36;;;;;;;3.60;1.38;;;;;;;;;;4939141;28;94235;-86
2023/06/04 13:33:03;;;;;;;7.45;1.33;;;;;;;;;;4947922;28;93756;-86
2023/06/04 13:35:31;;;;;;;8.02;1.02;;;;;;;;;;4962324;28;92224;-83
2023/06/04 13:37:57;;;;;;;4.70;1.27;;;;;;;;;;4957195;28;94100;-83
2023/06/04 13:40:24;;;;;;;4.38;1.20;;;;;;;;;;4960791;28;93754;-82
2023/06/04 13:42:51;;;;;;;4.03;1.77;;;;;;;;;;4969001;28;92929;-85
2023/06/04 13:45:19;;;;;;;4.55;1.63;;;;;;;;;;4963260;28;94883;-85
2023/06/04 13:47:48;;;;;;;4.78;1.50;;;;;;;;;;4963607;28;96321;-86
2023/06/04 13:50:14;;;;;;;4.78;1.35;;;;;;;;;;4959128;28;92302;-86
2023/06/04 13:52:41;;;;;;;5.53;1.50;;;;;;;;;;4953146;28;94112;-85
2023/06/04 13:55:08;;;;;;;3.63;1.30;;;;;;;;;;4968589;28;92443;-85
2023/06/04 13:57:34;;;;;;;3.47;1.13;;;;;;;;;;4966069;28;92386;-85
2023/06/04 14:00:01;;;;;;;3.90;1.58;;;;;;;;;;4967541;28;96082;-86
2023/06/04 14:02:29;;;;;;;1.98;1.08;;;;;;;;;;4965237;28;92438;-86
2023/06/04 14:04:56;;;;;;;3.22;1.00;;;;;;;;;;4970130;28;92183;-86
2023/06/04 14:07:23;;;;;;;4.50;1.10;;;;;;;;;;4963854;28;92234;-86
2023/06/04 14:09:54;;;;;;;5.60;1.35;;;;;;;;;;4963812;28;94501;-86
2023/06/04 14:12:20;;;;;;;;;;;;;;;;;;4966652;28;92431;-86
2023/06/04 14:14:47;;;;;;;5.13;1.10;;;;;;;;;;4963375;28;120599;-85
2023/06/04 14:17:14;;;;;;;8.02;1.40;;;;;;;;;;4949683;28;92479;-87
2023/06/04 14:19:40;;;;;;;3.47;1.52;;;;;;;;;;4965140;28;94330;-86
2023/06/04 14:22:07;;;;;;;4.68;1.45;;;;;;;;;;4956434;28;96068;-86
2023/06/04 14:24:34;;;;;;;2.58;0.98;;;;;;;;;;4951397;28;94906;-87
2023/06/04 14:27:00;;;;;;;3.60;1.30;;;;;;;;;;4948583;28;94713;-86
2023/06/04 14:29:27;;;;;;;6.60;1.17;;;;;;;;;;4959364;28;92215;-86
2023/06/04 14:31:54;;;;;;;1.98;1.15;;;;;;;;;;4945378;28;94324;-86
2023/06/04 14:34:20;;;;;;;3.80;1.42;;;;;;;;;;4941842;28;94859;-86
2023/06/04 14:36:47;;;;;;;1.75;1.30;;;;;;;;;;4938898;28;94473;-86
2023/06/04 14:39:16;;;;;;;1.88;1.15;;;;;;;;;;4958675;28;93585;-87
2023/06/04 14:41:45;;;;;;;2.13;1.00;;;;;;;;;;4948682;28;92394;-87
2023/06/04 14:44:12;;;;;;;6.18;1.42;;;;;;;;;;4947234;28;92552;-86
2023/06/04 14:46:39;;;;;;;10.27;1.88;;;;;;;;;;4939985;28;94777;-86